Time;durP1;ratioP1;P1;durP2;ratioP2;P2;SDS_P1;SDS_P2;PMS_P1;PMS_P2;Temp;Humidity;BMP_temperature;BMP_pressure;BME280_temperature;BME280_humidity;BME280_pressure;Samples;Min_cycle;Max_cycle;Signal;HPM_P1;HPM_P2
2022/09/06 00:02:03;;;;;;;3.92;1.95;;;;;;;19.19;56.96;101430.88;5035070;28;20048;-81
2022/09/06 00:04:29;;;;;;;5.75;1.85;;;;;;;19.14;57.24;101419.63;5034782;28;20112;-81
2022/09/06 00:06:54;;;;;;;3.33;1.70;;;;;;;19.11;57.34;101421.81;5034858;28;20494;-81
2022/09/06 00:09:20;;;;;;;4.18;1.98;;;;;;;19.17;57.13;101422.03;5034771;28;20532;-81
2022/09/06 00:11:45;;;;;;;7.00;1.70;;;;;;;19.04;57.28;101410.69;5034564;28;20087;-81
2022/09/06 00:14:10;;;;;;;8.70;2.50;;;;;;;19.05;57.47;101423.28;5034561;28;20029;-81
2022/09/06 00:16:36;;;;;;;8.32;1.60;;;;;;;19.01;57.55;101416.44;5034490;28;20104;-81
2022/09/06 00:19:01;;;;;;;4.13;1.58;;;;;;;18.98;57.70;101417.63;5034621;28;20037;-80
2022/09/06 00:21:29;;;;;;;8.27;2.13;;;;;;;18.95;57.94;101423.41;5034490;28;20033;-80
2022/09/06 00:23:55;;;;;;;5.95;2.30;;;;;;;18.98;57.53;101408.59;5034642;28;20407;-81
2022/09/06 00:26:21;;;;;;;4.07;1.85;;;;;;;18.98;57.93;101408.59;5016582;28;20495;-80
2022/09/06 00:28:47;;;;;;;3.22;1.80;;;;;;;19.00;57.81;101414.72;5034339;28;20041;-81
2022/09/06 00:31:21;;;;;;;4.53;1.48;;;;;;;18.96;58.21;101413.31;5034382;28;20033;-81
2022/09/06 00:33:47;;;;;;;3.50;2.03;;;;;;;18.92;58.16;101412.81;5034129;28;20037;-81
2022/09/06 00:36:13;;;;;;;9.68;2.47;;;;;;;19.00;57.97;101415.59;5034156;28;20044;-81
2022/09/06 00:38:39;;;;;;;3.95;1.92;;;;;;;18.89;57.72;101395.91;5034416;28;20159;-81
2022/09/06 00:41:07;;;;;;;3.45;1.60;;;;;;;18.95;57.94;101407.03;5016308;28;20045;-80
2022/09/06 00:43:33;;;;;;;6.78;2.10;;;;;;;18.93;58.20;101411.78;5034271;28;20108;-80
2022/09/06 00:46:00;;;;;;;8.27;2.25;;;;;;;18.85;58.22;101405.41;5034203;28;20175;-80
2022/09/06 00:48:26;;;;;;;6.25;2.03;;;;;;;18.90;57.91;101400.34;5033940;28;20037;-80
2022/09/06 00:50:57;;;;;;;4.75;2.15;;;;;;;18.82;58.10;101400.28;5015874;28;20041;-81
2022/09/06 00:53:24;;;;;;;7.30;2.13;;;;;;;18.88;57.98;101411.41;5014426;28;20237;-80
2022/09/06 00:55:49;;;;;;;7.30;2.00;;;;;;;18.83;58.28;101415.63;5014189;28;20095;-80
2022/09/06 00:58:15;;;;;;;3.35;1.85;;;;;;;18.67;58.37;101397.28;5014032;28;20109;-80
2022/09/06 01:00:40;;;;;;;13.30;1.85;;;;;;;18.67;58.38;101396.44;5013921;28;20127;-80
2022/09/06 01:03:08;;;;;;;4.78;1.80;;;;;;;18.63;58.55;101416.81;5013946;28;20054;-80
2022/09/06 01:06:09;;;;;;;3.45;2.03;;;;;;;18.59;58.95;101426.34;5014020;28;20041;-80
2022/09/06 01:09:12;;;;;;;7.82;1.75;;;;;;;18.57;59.24;101422.91;5013939;28;20113;-80
2022/09/06 01:12:00;;;;;;;5.10;2.00;;;;;;;18.62;58.91;101426.03;5013846;28;20381;-80
2022/09/06 01:14:50;;;;;;;5.75;2.40;;;;;;;18.50;59.30;101419.13;5013738;28;20037;-81
2022/09/06 01:17:53;;;;;;;7.00;2.10;;;;;;;18.67;58.97;101429.13;5013696;28;20036;-81
2022/09/06 01:20:34;;;;;;;10.52;7.47;;;;;;;18.71;59.03;101427.81;5013678;28;20037;-81
2022/09/06 01:23:33;;;;;;;7.70;3.00;;;;;;;18.72;59.04;101419.47;5013645;28;20562;-81
2022/09/06 01:26:20;;;;;;;8.38;2.10;;;;;;;18.77;58.89;101421.72;5013614;28;20045;-80
2022/09/06 01:28:47;;;;;;;4.40;2.20;;;;;;;18.76;58.93;101422.72;5013495;28;20037;-80
2022/09/06 01:31:41;;;;;;;4.50;2.80;;;;;;;18.79;58.90;101422.41;5013585;28;20045;-81
2022/09/06 01:34:06;;;;;;;6.93;2.90;;;;;;;18.75;58.99;101429.19;5013215;28;20117;-80
2022/09/06 01:37:04;;;;;;;5.05;2.67;;;;;;;18.78;59.39;101431.59;5013307;28;20563;-81
2022/09/06 01:39:32;;;;;;;14.18;2.28;;;;;;;18.64;60.01;101415.81;5005141;28;20042;-80
2022/09/06 01:42:07;;;;;;;13.52;3.20;;;;;;;18.53;60.04;101411.47;5013379;28;20034;-80
2022/09/06 01:44:34;;;;;;;9.93;3.40;;;;;;;18.48;60.34;101419.22;5013017;28;20415;-80
2022/09/06 01:47:08;;;;;;;6.45;2.83;;;;;;;18.46;60.51;101430.28;5011042;28;20048;-81
2022/09/06 01:49:52;;;;;;;4.05;1.80;;;;;;;18.38;60.30;101410.25;5016606;28;20025;-80
2022/09/06 01:52:28;;;;;;;6.25;1.80;;;;;;;18.27;60.45;101396.91;5030525;28;20022;-80
2022/09/06 01:55:15;;;;;;;15.35;3.10;;;;;;;18.36;60.61;101415.88;5032455;28;20095;-80
2022/09/06 01:57:40;;;;;;;4.78;2.10;;;;;;;18.32;60.61;101417.19;5032655;28;20115;-80
2022/09/06 02:00:10;;;;;;;7.97;3.15;;;;;;;18.26;60.80;101409.66;5032751;28;20092;-80
2022/09/06 02:02:53;;;;;;;6.10;2.80;;;;;;;18.20;61.21;101414.84;5032531;28;20053;-80
2022/09/06 02:05:26;;;;;;;7.50;2.40;;;;;;;18.10;61.31;101414.97;5032321;28;20042;-81
2022/09/06 02:07:57;;;;;;;5.20;2.67;;;;;;;18.02;61.44;101394.94;5032736;28;20037;-80
2022/09/06 02:10:30;;;;;;;11.35;2.97;;;;;;;18.05;61.67;101405.50;5032715;28;20124;-80
2022/09/06 02:13:00;;;;;;;7.82;2.75;;;;;;;17.93;61.90;101402.16;5033066;28;20044;-81
2022/09/06 02:15:33;;;;;;;3.83;2.13;;;;;;;17.93;61.74;101404.88;5032660;28;20104;-81
2022/09/06 02:18:04;;;;;;;6.40;2.25;;;;;;;17.90;61.96;101407.91;5032653;28;20036;-81
2022/09/06 02:20:32;;;;;;;8.20;2.60;;;;;;;17.87;61.96;101400.06;5032466;28;20037;-81
2022/09/06 02:23:02;;;;;;;6.95;3.10;;;;;;;17.92;61.87;101400.44;5032150;28;20119;-81
2022/09/06 02:25:40;;;;;;;12.43;2.50;;;;;;;17.86;61.91;101396.47;5032268;28;20029;-81
2022/09/06 02:28:07;;;;;;;10.48;3.08;;;;;;;17.82;62.08;101394.22;5014182;28;20072;-81
2022/09/06 02:30:41;;;;;;;9.98;2.38;;;;;;;17.79;62.16;101387.22;5032085;28;20033;-80
2022/09/06 02:33:13;;;;;;;40.88;5.30;;;;;;;17.80;62.22;101396.22;5032231;28;20037;-80
2022/09/06 02:35:49;;;;;;;8.52;2.55;;;;;;;17.81;62.14;101389.78;5032246;28;20060;-80
2022/09/06 02:38:16;;;;;;;8.13;2.30;;;;;;;17.73;62.16;101378.81;5032046;28;20427;-80
2022/09/06 02:40:43;;;;;;;4.53;2.10;;;;;;;17.74;62.50;101385.94;5032032;28;20112;-81
2022/09/06 02:43:09;;;;;;;7.80;2.40;;;;;;;17.71;62.48;101375.38;5032121;28;20033;-80
2022/09/06 02:45:34;;;;;;;8.98;2.35;;;;;;;17.77;62.51;101388.34;5031901;28;20041;-81
2022/09/06 02:48:00;;;;;;;4.13;2.10;;;;;;;17.79;62.85;101379.06;5032066;28;20041;-81
2022/09/06 02:50:25;;;;;;;10.23;3.00;;;;;;;17.78;63.00;101381.91;5028147;28;20053;-81
2022/09/06 02:53:04;;;;;;;8.40;3.15;;;;;;;17.78;63.41;101387.34;5011932;28;20033;-81
2022/09/06 02:55:31;;;;;;;6.80;2.42;;;;;;;17.76;63.38;101386.66;5012189;28;20453;-80
2022/09/06 02:57:57;;;;;;;4.03;2.22;;;;;;;17.74;63.33;101380.50;5011672;28;20057;-80
2022/09/06 03:00:23;;;;;;;5.03;2.28;;;;;;;17.73;62.92;101376.09;5011542;28;20061;-80
2022/09/06 03:02:48;;;;;;;10.45;2.60;;;;;;;17.78;62.77;101392.81;5011422;28;20073;-82
2022/09/06 03:05:14;;;;;;;3.00;2.00;;;;;;;17.65;63.40;101365.94;5011644;28;20042;-80
2022/09/06 03:07:39;;;;;;;12.15;4.03;;;;;;;17.70;63.40;101379.97;5011164;28;20037;-81
2022/09/06 03:10:05;;;;;;;11.70;3.08;;;;;;;17.72;63.18;101388.84;5011085;28;20046;-81
2022/09/06 03:12:30;;;;;;;5.75;2.53;;;;;;;17.68;63.19;101386.56;5011447;28;20041;-81
2022/09/06 03:14:56;;;;;;;4.80;2.20;;;;;;;17.69;63.17;101382.84;5011933;28;20034;-81
2022/09/06 03:17:22;;;;;;;7.38;2.72;;;;;;;17.74;63.07;101396.84;5011856;28;20042;-81
2022/09/06 03:19:47;;;;;;;4.78;2.22;;;;;;;17.74;63.09;101384.09;5011905;28;20042;-80
2022/09/06 03:22:13;;;;;;;16.17;4.75;;;;;;;17.80;63.00;101380.75;5012160;28;20149;-80
2022/09/06 03:24:38;;;;;;;7.80;2.70;;;;;;;17.91;62.74;101387.84;5011685;28;20045;-81
2022/09/06 03:27:04;;;;;;;17.15;4.03;;;;;;;17.89;62.94;101389.84;5011754;28;20357;-80
2022/09/06 03:29:29;;;;;;;11.65;3.75;;;;;;;17.74;63.14;101377.78;5011915;28;20391;-80
2022/09/06 03:31:55;;;;;;;9.68;3.70;;;;;;;17.71;63.44;101380.81;5011594;28;20042;-81
2022/09/06 03:34:20;;;;;;;17.08;4.07;;;;;;;17.68;63.66;101392.00;5011631;28;20038;-81
2022/09/06 03:36:45;;;;;;;7.35;3.60;;;;;;;17.64;63.78;101390.59;5011714;28;20045;-80
2022/09/06 03:39:11;;;;;;;7.18;3.53;;;;;;;17.61;63.64;101382.75;5011788;28;20069;-81
2022/09/06 03:41:37;;;;;;;9.90;2.90;;;;;;;17.52;63.45;101370.03;5011807;28;20041;-81
2022/09/06 03:44:03;;;;;;;20.67;3.80;;;;;;;17.53;63.63;101380.75;5011717;28;20034;-80
2022/09/06 03:46:29;;;;;;;55.10;6.78;;;;;;;17.49;63.59;101373.88;5011710;28;20392;-79
2022/09/06 03:48:56;;;;;;;9.48;2.78;;;;;;;17.58;63.48;101385.78;5011433;28;20037;-80
2022/09/06 03:51:21;;;;;;;6.25;2.53;;;;;;;17.58;63.63;101392.06;5010889;28;20309;-80
2022/09/06 03:53:47;;;;;;;7.10;2.85;;;;;;;17.48;63.77;101376.75;5031065;28;20472;-80
2022/09/06 03:56:13;;;;;;;8.77;3.10;;;;;;;17.60;63.58;101394.63;5030998;28;20039;-81
2022/09/06 03:58:38;;;;;;;17.58;3.65;;;;;;;17.52;63.58;101375.47;5025892;28;20411;-83
2022/09/06 04:01:07;;;;;;;26.20;4.93;;;;;;;17.59;63.69;101390.19;5011599;28;20042;-85
2022/09/06 04:03:34;;;;;;;21.27;5.72;;;;;;;17.41;64.12;101373.78;5011644;28;20108;-83
2022/09/06 04:06:00;;;;;;;16.58;4.80;;;;;;;17.58;64.08;101402.09;5011736;28;20037;-83
2022/09/06 04:08:26;;;;;;;21.50;3.20;;;;;;;17.47;63.75;101388.66;5011575;28;20121;-84
2022/09/06 04:10:53;;;;;;;26.95;4.45;;;;;;;17.48;63.92;101401.25;5013320;28;20120;-83
2022/09/06 04:13:19;;;;;;;16.23;5.50;;;;;;;17.59;64.28;101410.09;5014992;28;20088;-83
2022/09/06 04:15:46;;;;;;;50.72;9.02;;;;;;;17.62;64.50;101403.47;5014928;28;20041;-80
2022/09/06 04:18:12;;;;;;;31.70;5.90;;;;;;;17.60;64.32;101400.06;5014952;28;20037;-80
2022/09/06 04:20:38;;;;;;;54.53;6.60;;;;;;;17.64;63.99;101386.03;5014732;28;20034;-81
2022/09/06 04:23:03;;;;;;;17.63;3.90;;;;;;;17.71;63.72;101403.44;5014831;28;20143;-81
2022/09/06 04:25:29;;;;;;;11.23;4.28;;;;;;;17.70;63.41;101384.56;5015367;28;20443;-86
2022/09/06 04:27:54;;;;;;;42.05;7.05;;;;;;;17.84;63.10;101400.34;5015295;28;20036;-83
2022/09/06 04:30:19;;;;;;;33.60;7.75;;;;;;;17.72;63.54;101387.97;5014617;28;20044;-80
2022/09/06 04:32:45;;;;;;;18.00;5.88;;;;;;;17.65;63.40;101368.69;5014447;28;20042;-79
2022/09/06 04:35:10;;;;;;;26.25;6.45;;;;;;;17.75;63.47;101387.66;5014375;28;20034;-79
2022/09/06 04:37:36;;;;;;;34.28;6.90;;;;;;;17.80;63.67;101407.97;5014157;28;20045;-79
2022/09/06 04:40:02;;;;;;;19.48;6.72;;;;;;;17.81;64.01;101401.53;5014018;28;20052;-79
2022/09/06 04:42:27;;;;;;;10.85;5.72;;;;;;;17.91;63.82;101398.75;5014232;28;20161;-81
2022/09/06 04:44:53;;;;;;;34.17;8.55;;;;;;;17.97;63.44;101409.03;5014082;28;20042;-80
2022/09/06 04:47:18;;;;;;;27.75;7.13;;;;;;;17.95;63.15;101397.41;5013823;28;20479;-81
2022/09/06 04:49:44;;;;;;;28.20;6.90;;;;;;;18.06;63.37;101413.53;5014177;28;19913;-80
2022/09/06 04:52:11;;;;;;;20.30;6.63;;;;;;;18.11;63.48;101413.91;4996418;28;20068;-82
2022/09/06 04:54:36;;;;;;;41.67;9.32;;;;;;;18.17;63.63;101404.28;5014030;28;20041;-81
2022/09/06 04:57:02;;;;;;;73.70;14.63;;;;;;;18.14;63.54;101399.13;5013922;28;20041;-82
2022/09/06 04:59:28;;;;;;;29.48;8.77;;;;;;;18.28;63.40;101406.78;4996482;28;20034;-81
2022/09/06 05:01:54;;;;;;;18.98;7.78;;;;;;;18.38;62.86;101397.50;5014709;28;20510;-81
2022/09/06 05:04:19;;;;;;;27.42;9.35;;;;;;;18.40;62.78;101379.16;5013237;28;20057;-78
2022/09/06 05:06:45;;;;;;;29.15;8.80;;;;;;;18.51;62.53;101396.28;5013550;28;20446;-78
2022/09/06 05:09:10;;;;;;;29.45;8.95;;;;;;;18.57;62.42;101401.09;5013469;28;20030;-78
2022/09/06 05:11:36;;;;;;;22.52;9.88;;;;;;;18.51;62.63;101401.72;5013462;28;20081;-76
2022/09/06 05:14:01;;;;;;;21.17;9.07;;;;;;;18.58;62.54;101397.38;5013701;28;20044;-77
2022/09/06 05:16:27;;;;;;;17.88;7.78;;;;;;;18.61;62.45;101406.09;5013440;28;20088;-78
2022/09/06 05:18:52;;;;;;;23.73;8.50;;;;;;;18.57;62.61;101401.97;5013168;28;20491;-77
2022/09/06 05:21:18;;;;;;;19.45;8.43;;;;;;;18.76;62.29;101414.56;5012614;28;20026;-77
2022/09/06 05:23:43;;;;;;;22.77;8.60;;;;;;;18.85;61.77;101410.88;5012632;28;20385;-77
2022/09/06 05:26:09;;;;;;;25.38;7.55;;;;;;;18.93;61.56;101419.09;5013249;28;20026;-79
2022/09/06 05:28:34;;;;;;;21.35;8.13;;;;;;;18.98;61.22;101416.78;5012900;28;20048;-78
2022/09/06 05:31:11;;;;;;;21.02;7.85;;;;;;;19.05;61.31;101426.00;5013237;28;20041;-79
2022/09/06 05:33:37;;;;;;;19.52;7.28;;;;;;;19.12;61.11;101418.91;5013072;28;20021;-80
2022/09/06 05:36:06;;;;;;;39.85;10.98;;;;;;;19.23;61.05;101420.50;5013136;28;20068;-77
2022/09/06 05:38:31;;;;;;;23.67;8.57;;;;;;;19.22;60.71;101419.66;5012535;28;20488;-80
2022/09/06 05:40:57;;;;;;;22.95;8.00;;;;;;;19.19;60.76;101391.84;5013173;28;20030;-81
2022/09/06 05:43:22;;;;;;;23.75;9.35;;;;;;;19.40;60.68;101416.88;5013249;28;20037;-81
2022/09/06 05:45:48;;;;;;;22.83;7.57;;;;;;;19.35;60.49;101400.97;5015292;28;20416;-78
2022/09/06 05:48:13;;;;;;;25.33;7.13;;;;;;;19.43;60.18;101401.03;5014385;28;20038;-83
2022/09/06 05:50:39;;;;;;;21.50;7.38;;;;;;;19.44;60.21;101396.44;5013400;28;20030;-83
2022/09/06 05:53:04;;;;;;;30.48;8.13;;;;;;;19.65;60.09;101415.97;5014288;28;20042;-85
2022/09/06 05:55:30;;;;;;;32.35;7.00;;;;;;;19.81;59.90;101415.19;5013356;28;20041;-81
2022/09/06 05:57:55;;;;;;;21.30;7.57;;;;;;;19.77;59.87;101402.88;5013037;28;20033;-81
2022/09/06 06:00:21;;;;;;;31.08;8.18;;;;;;;20.03;59.52;101418.16;5012887;28;20403;-80
2022/09/06 06:02:47;;;;;;;28.00;8.07;;;;;;;19.92;59.54;101390.31;5017913;28;20361;-81
2022/09/06 06:05:14;;;;;;;12.02;5.28;;;;;;;20.19;59.06;101409.13;5029344;28;20104;-79
2022/09/06 06:07:39;;;;;;;34.80;8.60;;;;;;;20.32;58.70;101414.16;5013710;28;20374;-81
2022/09/06 06:10:05;;;;;;;20.00;6.53;;;;;;;20.45;58.25;101419.97;5012701;28;20049;-80
2022/09/06 06:12:30;;;;;;;6.95;3.08;;;;;;;20.47;56.26;101407.84;5012769;28;20488;-80
2022/09/06 06:14:56;;;;;;;10.55;2.75;;;;;;;20.69;55.21;101417.25;5013230;28;20030;-79
2022/09/06 06:17:22;;;;;;;18.45;6.80;;;;;;;20.84;54.97;101415.53;5012371;28;20092;-79
2022/09/06 06:19:47;;;;;;;196.15;16.55;;;;;;;20.89;52.46;101415.00;5012286;28;20125;-80
2022/09/06 06:22:13;;;;;;;10.77;2.92;;;;;;;21.00;51.05;101412.78;5012273;28;20069;-79
2022/09/06 06:24:38;;;;;;;56.60;7.22;;;;;;;21.06;50.20;101409.34;5011216;28;20472;-80
2022/09/06 06:27:04;;;;;;;7.03;3.33;;;;;;;21.14;50.17;101416.72;5012273;28;20096;-82
2022/09/06 06:29:29;;;;;;;16.20;2.53;;;;;;;21.15;50.18;101385.59;5012008;28;20034;-84
2022/09/06 06:31:55;;;;;;;8.45;3.45;;;;;;;21.36;50.17;101405.03;5012940;28;20041;-83
2022/09/06 06:34:20;;;;;;;12.02;2.75;;;;;;;21.22;49.76;101362.00;5012043;28;20037;-82
2022/09/06 06:36:47;;;;;;;9.80;5.10;;;;;;;21.54;48.12;101397.44;4995840;28;20393;-84
2022/09/06 06:39:12;;;;;;;30.90;4.65;;;;;;;21.47;48.39;101385.47;5015916;28;20045;-86
2022/09/06 06:41:38;;;;;;;15.32;3.40;;;;;;;21.75;47.90;101416.00;5013802;28;20029;-83
2022/09/06 06:44:04;;;;;;;7.43;3.47;;;;;;;21.81;48.16;101408.94;5014192;28;20033;-82
2022/09/06 06:46:32;;;;;;;9.88;3.03;;;;;;;21.82;47.94;101394.22;5011358;28;20038;-80
2022/09/06 06:48:58;;;;;;;13.50;3.97;;;;;;;21.85;47.33;101393.88;4976633;28;20478;-88
2022/09/06 06:51:27;;;;;;;16.30;4.15;;;;;;;22.06;45.86;101424.25;5003578;28;20045;-89
2022/09/06 06:53:55;;;;;;;14.00;3.28;;;;;;;22.07;45.58;101420.50;5016153;28;20048;-90
2022/09/06 06:56:24;;;;;;;11.15;3.42;;;;;;;21.98;45.71;101400.53;4994858;28;20050;-81
2022/09/06 06:58:52;;;;;;;18.20;3.55;;;;;;;22.18;46.18;101417.34;5012439;28;20038;-81
2022/09/06 07:01:19;;;;;;;11.60;2.25;;;;;;;22.11;45.23;101411.72;5011580;28;20034;-81
2022/09/06 07:03:45;;;;;;;14.57;2.75;;;;;;;22.26;45.28;101417.31;5013161;28;20057;-87
2022/09/06 07:06:12;;;;;;;11.70;2.05;;;;;;;22.20;45.20;101402.41;5013349;28;20057;-86
2022/09/06 07:08:38;;;;;;;11.40;2.15;;;;;;;22.22;45.49;101408.59;5012176;28;20041;-82
2022/09/06 07:11:09;;;;;;;24.33;6.43;;;;;;;22.24;45.76;101400.16;5012958;28;20034;-84
2022/09/06 07:13:35;;;;;;;23.52;8.43;;;;;;;22.39;45.91;101416.66;5012294;28;20112;-83
2022/09/06 07:16:20;;;;;;;19.17;2.95;;;;;;;22.47;46.05;101419.38;5013205;28;20038;-84
2022/09/06 07:18:49;;;;;;;11.07;5.45;;;;;;;22.51;45.45;101406.97;4994684;28;20036;-82
2022/09/06 07:21:16;;;;;;;13.60;2.42;;;;;;;22.66;44.92;101419.75;5012434;28;20038;-81
2022/09/06 07:23:42;;;;;;;9.43;3.08;;;;;;;22.60;43.88;101406.75;5012027;28;20487;-84
2022/09/06 07:26:13;;;;;;;13.93;4.07;;;;;;;22.80;43.20;101430.97;5011993;28;20049;-82
2022/09/06 07:28:39;;;;;;;4.28;2.25;;;;;;;22.82;42.96;101415.16;5011040;28;20436;-77
2022/09/06 07:31:04;;;;;;;4.88;2.17;;;;;;;22.87;42.49;101418.22;5011324;28;20038;-79
2022/09/06 07:33:30;;;;;;;11.18;2.08;;;;;;;22.85;41.90;101420.28;5011846;28;20100;-81
2022/09/06 07:36:00;;;;;;;8.43;2.35;;;;;;;22.85;41.89;101418.38;4985706;28;20047;-84
2022/09/06 07:38:27;;;;;;;14.57;2.63;;;;;;;22.90;42.18;101426.94;4993599;28;20031;-81
2022/09/06 07:40:57;;;;;;;6.10;2.25;;;;;;;22.84;41.29;101408.47;4992732;28;20039;-80
2022/09/06 07:43:24;;;;;;;12.32;3.42;;;;;;;22.98;41.19;101426.00;4992241;28;20041;-80
2022/09/06 07:46:18;;;;;;;13.70;2.78;;;;;;;22.97;41.17;101424.28;4994279;28;20520;-81
2022/09/06 07:48:45;;;;;;;12.93;2.67;;;;;;;23.05;41.60;101426.97;4995877;28;20089;-81
2022/09/06 07:51:18;;;;;;;17.83;2.20;;;;;;;23.16;41.75;101429.22;5004957;28;20395;-81
2022/09/06 07:53:51;;;;;;;9.63;2.38;;;;;;;23.16;41.26;101421.88;5035123;28;20037;-82
2022/09/06 07:56:18;;;;;;;9.88;2.58;;;;;;;23.18;41.47;101427.16;5035535;28;20033;-81
2022/09/06 07:58:48;;;;;;;10.55;2.00;;;;;;;23.09;41.21;101411.81;5035553;28;20108;-81
2022/09/06 08:01:33;;;;;;;12.50;1.98;;;;;;;23.28;41.55;101435.97;5035733;28;20045;-86
2022/09/06 08:04:07;;;;;;;2.78;2.08;;;;;;;23.32;41.91;101429.06;5034011;28;20061;-81
2022/09/06 08:06:35;;;;;;;10.32;2.50;;;;;;;23.31;41.88;101425.47;5034980;28;20041;-79
2022/09/06 08:09:02;;;;;;;7.70;2.15;;;;;;;23.38;41.47;101433.81;5034394;28;20131;-79
2022/09/06 08:11:30;;;;;;;4.00;2.17;;;;;;;23.36;41.36;101433.16;5016759;28;20482;-80
2022/09/06 08:13:57;;;;;;;8.50;2.35;;;;;;;23.47;42.13;101429.09;5034293;28;20498;-80
2022/09/06 08:16:24;;;;;;;5.95;2.67;;;;;;;23.42;42.28;101424.19;5034784;28;20581;-80
2022/09/06 08:18:51;;;;;;;15.85;2.90;;;;;;;23.51;42.68;101428.56;5016420;28;20037;-78
2022/09/06 08:21:17;;;;;;;9.65;2.20;;;;;;;23.56;42.95;101428.81;5034041;28;20030;-79
2022/09/06 08:23:55;;;;;;;7.65;2.55;;;;;;;23.61;42.63;101415.38;5034444;28;20410;-79
2022/09/06 08:26:22;;;;;;;9.95;2.75;;;;;;;23.70;41.89;101422.47;5033241;28;20077;-79
2022/09/06 08:28:56;;;;;;;2.28;1.52;;;;;;;23.79;42.19;101418.56;5033261;28;20037;-79
2022/09/06 08:31:22;;;;;;;5.13;2.10;;;;;;;23.74;42.26;101401.81;5034067;28;20125;-79
2022/09/06 08:33:48;;;;;;;7.80;2.08;;;;;;;23.69;43.04;101418.03;5033325;28;20030;-80
2022/09/06 08:36:14;;;;;;;6.55;2.40;;;;;;;23.73;43.42;101418.47;5032973;28;20099;-79
2022/09/06 08:38:40;;;;;;;9.38;2.60;;;;;;;23.78;43.38;101407.78;5032802;28;20041;-78
2022/09/06 08:41:18;;;;;;;8.45;2.22;;;;;;;23.89;43.07;101415.53;5015773;28;20111;-79
2022/09/06 08:43:59;;;;;;;6.82;2.75;;;;;;;23.99;43.02;101415.22;5025518;28;20045;-79
2022/09/06 08:46:44;;;;;;;17.75;2.40;;;;;;;23.95;43.49;101422.13;5033916;28;20026;-79
2022/09/06 08:49:10;;;;;;;12.48;4.43;;;;;;;24.06;44.00;101406.03;5033716;28;20037;-79
2022/09/06 08:51:48;;;;;;;21.90;3.47;;;;;;;24.31;42.45;101414.78;5033626;28;20104;-80
2022/09/06 08:54:51;;;;;;;6.13;2.00;;;;;;;24.30;41.48;101411.19;5033763;28;20121;-79
2022/09/06 08:57:41;;;;;;;13.35;2.70;;;;;;;24.28;41.69;101412.41;4952908;28;20117;-80
2022/09/06 09:00:10;;;;;;;12.75;2.15;;;;;;;24.19;40.87;101406.19;5030250;28;20048;-80
2022/09/06 09:02:50;;;;;;;8.35;1.85;;;;;;;24.27;40.74;101402.47;5033943;28;20499;-80
2022/09/06 09:05:25;;;;;;;3.53;1.85;;;;;;;24.22;41.31;101407.69;5033835;28;20128;-80
2022/09/06 09:08:00;;;;;;;5.88;1.80;;;;;;;24.28;40.72;101387.66;5033553;28;20045;-81
2022/09/06 09:10:38;;;;;;;5.72;2.15;;;;;;;24.42;41.11;101397.75;5015549;28;20033;-81
2022/09/06 09:13:08;;;;;;;8.95;2.47;;;;;;;24.57;41.68;101389.44;5033217;28;20037;-80
2022/09/06 09:15:35;;;;;;;22.80;2.88;;;;;;;24.47;42.57;101392.50;5033388;28;20029;-79
2022/09/06 09:18:01;;;;;;;9.90;2.22;;;;;;;24.54;43.14;101392.59;5033258;28;20030;-79
2022/09/06 09:20:36;;;;;;;23.35;3.10;;;;;;;24.46;43.19;101354.22;5034209;28;20120;-79
2022/09/06 09:23:03;;;;;;;6.57;2.30;;;;;;;24.55;42.58;101383.28;5035104;28;20464;-79
2022/09/06 09:25:32;;;;;;;5.93;2.13;;;;;;;24.55;42.23;101389.66;5034173;28;20041;-78
2022/09/06 09:27:58;;;;;;;13.30;2.00;;;;;;;24.40;43.06;101383.38;5033405;28;20037;-80
2022/09/06 09:30:25;;;;;;;14.30;3.28;;;;;;;24.53;42.88;101375.22;5033871;28;20491;-79
2022/09/06 09:32:54;;;;;;;6.35;1.88;;;;;;;24.60;43.10;101376.16;5034559;28;20389;-79
2022/09/06 09:35:35;;;;;;;4.63;1.90;;;;;;;24.75;42.72;101374.16;5030217;28;20041;-80
2022/09/06 09:38:06;;;;;;;8.77;1.95;;;;;;;24.62;42.69;101352.03;5013435;28;20558;-79
2022/09/06 09:40:50;;;;;;;6.18;2.40;;;;;;;24.74;42.91;101366.94;5013638;28;20040;-80
2022/09/06 09:43:20;;;;;;;4.95;1.95;;;;;;;24.73;42.88;101359.75;5017276;28;20036;-79
2022/09/06 09:46:13;;;;;;;7.15;2.40;;;;;;;24.70;43.02;101371.16;5013289;28;20040;-79
2022/09/06 09:48:40;;;;;;;4.45;2.05;;;;;;;24.85;43.07;101363.69;5013355;28;20420;-79
2022/09/06 09:51:21;;;;;;;5.03;2.17;;;;;;;24.79;42.67;101341.59;5014622;28;20044;-79
2022/09/06 09:53:56;;;;;;;5.68;2.20;;;;;;;25.06;42.62;101353.66;5013084;28;20030;-79
2022/09/06 09:56:29;;;;;;;15.98;2.97;;;;;;;25.19;41.99;101368.38;5013262;28;20107;-79
2022/09/06 09:58:56;;;;;;;7.15;1.92;;;;;;;25.22;41.64;101353.34;5013449;28;20038;-80
2022/09/06 10:01:29;;;;;;;7.57;2.28;;;;;;;25.11;42.68;101337.38;5013012;28;20523;-81
2022/09/06 10:04:07;;;;;;;8.02;2.05;;;;;;;25.32;42.06;101353.81;5012743;28;20050;-80
2022/09/06 10:06:33;;;;;;;10.52;2.70;;;;;;;25.28;42.13;101358.06;4994971;28;20045;-78
2022/09/06 10:09:21;;;;;;;11.73;2.03;;;;;;;25.22;41.73;101359.72;5011889;28;20038;-79
2022/09/06 10:11:57;;;;;;;12.82;2.95;;;;;;;25.31;41.27;101357.66;5012675;28;20404;-79
2022/09/06 10:14:40;;;;;;;20.45;2.42;;;;;;;25.30;41.46;101355.94;5012283;28;20042;-78
2022/09/06 10:17:05;;;;;;;12.77;2.97;;;;;;;25.20;42.07;101349.94;5012435;28;20492;-80
2022/09/06 10:19:42;;;;;;;7.90;2.22;;;;;;;25.23;41.92;101350.38;5012515;28;20064;-79
2022/09/06 10:22:23;;;;;;;11.77;2.20;;;;;;;25.39;41.98;101354.72;5012527;28;20124;-79
2022/09/06 10:24:57;;;;;;;11.68;2.63;;;;;;;25.38;41.69;101347.53;5012207;28;20109;-79
2022/09/06 10:27:26;;;;;;;6.00;2.20;;;;;;;25.43;41.65;101347.75;5012209;28;20044;-79
2022/09/06 10:30:03;;;;;;;8.32;2.60;;;;;;;25.37;41.22;101330.16;5012638;28;20036;-79
2022/09/06 10:32:50;;;;;;;9.45;2.05;;;;;;;25.42;41.12;101341.38;5012528;28;20033;-79
2022/09/06 10:35:23;;;;;;;7.68;2.03;;;;;;;25.39;41.36;101322.50;5012395;28;20412;-79
2022/09/06 10:38:12;;;;;;;12.95;2.38;;;;;;;25.53;41.37;101325.38;5012003;28;20108;-80
2022/09/06 10:41:15;;;;;;;7.72;2.00;;;;;;;25.61;41.14;101328.78;5012350;28;20381;-79
2022/09/06 10:43:58;;;;;;;;;;;;;;;25.68;40.46;101326.91;5013599;28;20048;-79
2022/09/06 10:46:25;;;;;;;5.60;1.65;;;;;;;25.47;39.83;101324.25;5026440;28;19909;-80
2022/09/06 10:48:54;;;;;;;14.65;2.20;;;;;;;25.47;39.40;101301.38;5031773;28;20029;-81
2022/09/06 10:51:41;;;;;;;7.68;2.42;;;;;;;25.61;39.42;101316.91;5031759;28;20399;-80
2022/09/06 10:54:08;;;;;;;9.57;2.65;;;;;;;25.69;39.41;101317.56;5031651;28;20033;-80
2022/09/06 10:56:48;;;;;;;5.07;2.17;;;;;;;25.79;38.98;101323.56;5031585;28;20622;-80
2022/09/06 10:59:38;;;;;;;7.90;2.67;;;;;;;25.84;38.52;101323.78;5031120;28;20314;-80
2022/09/06 11:02:54;;;;;;;3.55;2.00;;;;;;;25.93;38.18;101319.78;5032465;28;20045;-82
2022/09/06 11:05:31;;;;;;;11.05;2.30;;;;;;;25.96;37.64;101313.84;4994657;28;20047;-80
2022/09/06 11:08:07;;;;;;;12.68;2.90;;;;;;;25.85;37.55;101317.22;4992470;28;20038;-79
2022/09/06 11:10:37;;;;;;;3.17;2.45;;;;;;;25.72;37.00;101313.56;4992922;28;20041;-79
2022/09/06 11:13:09;;;;;;;3.38;1.85;;;;;;;25.82;37.10;101320.38;4993092;28;20030;-79
2022/09/06 11:16:14;;;;;;;18.35;2.85;;;;;;;25.91;37.23;101305.34;4994682;28;20034;-79
2022/09/06 11:18:57;;;;;;;7.13;2.25;;;;;;;26.10;36.94;101313.88;4992504;28;20109;-79
2022/09/06 11:21:36;;;;;;;7.07;1.83;;;;;;;26.19;36.69;101309.88;5000277;28;20038;-79
2022/09/06 11:24:12;;;;;;;10.23;2.25;;;;;;;26.09;37.15;101313.03;4999531;28;20037;-80
2022/09/06 11:26:43;;;;;;;8.18;2.28;;;;;;;26.19;37.35;101312.66;4996485;28;20494;-80
2022/09/06 11:29:25;;;;;;;8.87;2.03;;;;;;;26.23;37.46;101309.28;4996007;28;20129;-80
2022/09/06 11:31:56;;;;;;;12.97;2.80;;;;;;;26.23;37.13;101306.50;4996325;28;20030;-81
2022/09/06 11:34:26;;;;;;;6.78;1.90;;;;;;;26.08;37.16;101293.94;4996117;28;20270;-80
2022/09/06 11:36:55;;;;;;;11.90;2.58;;;;;;;26.27;37.05;101293.97;4996084;28;20045;-80
2022/09/06 11:39:30;;;;;;;11.63;2.22;;;;;;;26.29;36.04;101302.06;4995770;28;20030;-81